Time;durP1;ratioP1;P1;durP2;ratioP2;P2;SDS_P1;SDS_P2;PMS_P1;PMS_P2;Temp;Humidity;BMP_temperature;BMP_pressure;BME280_temperature;BME280_humidity;BME280_pressure;Samples;Min_cycle;Max_cycle;Signal;HPM_P1;HPM_P2
2023/05/03 00:02:01;;;;;;;8.98;1.98;;;;;;;10.73;90.96;102005.97;5032821;28;20034;-69
2023/05/03 00:04:27;;;;;;;10.15;1.70;;;;;;;10.82;91.26;102009.47;5033842;28;20025;-69
2023/05/03 00:06:52;;;;;;;10.35;1.85;;;;;;;10.79;90.81;102010.69;5033557;28;20052;-69
2023/05/03 00:09:18;;;;;;;11.70;1.83;;;;;;;10.87;91.08;102015.19;5032489;28;20038;-69
2023/05/03 00:11:43;;;;;;;8.48;1.67;;;;;;;10.89;90.38;102009.63;5033602;28;20476;-69
2023/05/03 00:14:09;;;;;;;7.65;1.30;;;;;;;10.94;91.43;102020.72;5032692;28;20045;-70
2023/05/03 00:16:34;;;;;;;10.27;1.65;;;;;;;10.88;91.05;102008.78;5032101;28;20029;-69
2023/05/03 00:19:00;;;;;;;10.82;1.60;;;;;;;10.82;91.18;101991.47;5031789;28;20036;-69
2023/05/03 00:21:26;;;;;;;8.32;1.30;;;;;;;10.96;91.29;102026.78;5039452;28;20504;-69
2023/05/03 00:23:51;;;;;;;11.63;1.92;;;;;;;10.85;91.32;102011.00;5035809;28;20053;-69
2023/05/03 00:26:17;;;;;;;7.90;1.50;;;;;;;10.90;91.50;102028.31;5032362;28;20025;-69
2023/05/03 00:28:42;;;;;;;7.65;1.40;;;;;;;10.88;91.90;102026.81;5032008;28;20550;-70
2023/05/03 00:31:08;;;;;;;9.50;1.73;;;;;;;10.89;91.80;102025.78;5033816;28;20025;-70
2023/05/03 00:33:35;;;;;;;7.20;1.40;;;;;;;10.92;91.75;102034.34;5046560;28;20040;-69
2023/05/03 00:36:11;;;;;;;9.82;1.38;;;;;;;10.88;91.88;102030.31;5045084;28;20489;-69
2023/05/03 00:38:38;;;;;;;6.32;1.58;;;;;;;10.88;91.75;102029.50;5036067;28;20057;-69
2023/05/03 00:41:04;;;;;;;9.85;1.70;;;;;;;10.89;91.81;102036.56;5034094;28;20091;-68
2023/05/03 00:43:30;;;;;;;6.43;1.40;;;;;;;10.88;91.64;102034.88;5032581;28;20552;-69
2023/05/03 00:46:02;;;;;;;9.02;1.75;;;;;;;10.78;91.94;102035.06;5014705;28;20061;-69
2023/05/03 00:48:27;;;;;;;9.25;1.73;;;;;;;10.70;91.80;102035.91;5032425;28;20197;-69
2023/05/03 00:50:55;;;;;;;7.75;1.65;;;;;;;10.66;91.41;102029.19;5031570;28;20033;-69
2023/05/03 00:53:21;;;;;;;8.27;1.58;;;;;;;10.44;91.58;102011.03;5032897;28;20040;-69
2023/05/03 00:55:47;;;;;;;11.75;1.42;;;;;;;10.52;92.02;102029.88;5033027;28;20021;-69
2023/05/03 00:58:13;;;;;;;8.52;1.70;;;;;;;10.49;92.56;102030.19;5031080;28;20093;-69
2023/05/03 01:00:38;;;;;;;6.05;1.30;;;;;;;10.46;92.26;102042.16;5032739;28;20045;-69
2023/05/03 01:03:04;;;;;;;9.50;1.80;;;;;;;10.39;92.61;102037.59;5032866;28;20031;-69
2023/05/03 01:05:39;;;;;;;10.73;1.50;;;;;;;10.30;93.19;102040.31;5034613;28;20548;-69
2023/05/03 01:08:13;;;;;;;10.75;1.50;;;;;;;10.37;93.07;102055.78;5032703;28;20108;-69
2023/05/03 01:10:46;;;;;;;6.47;1.27;;;;;;;10.43;92.72;102052.38;5032530;28;20029;-69
2023/05/03 01:13:12;;;;;;;7.10;1.55;;;;;;;10.48;91.92;102050.06;5032771;28;20045;-69
2023/05/03 01:15:48;;;;;;;8.93;1.85;;;;;;;10.29;92.70;102024.31;5033559;28;20598;-69
2023/05/03 01:18:20;;;;;;;9.30;2.05;;;;;;;10.30;92.37;102045.69;5047549;28;20052;-69
2023/05/03 01:20:48;;;;;;;7.65;2.08;;;;;;;10.30;92.37;102059.13;5034003;28;20033;-69
2023/05/03 01:23:41;;;;;;;7.72;1.58;;;;;;;10.25;92.32;102055.22;5032350;28;20025;-69
2023/05/03 01:26:20;;;;;;;12.00;1.70;;;;;;;10.17;92.15;102058.75;5031215;28;20056;-69
2023/05/03 01:28:46;;;;;;;7.90;1.70;;;;;;;10.11;92.14;102064.78;5031936;28;20033;-69
2023/05/03 01:31:17;;;;;;;10.77;1.80;;;;;;;10.10;92.35;102063.94;5031019;28;20037;-69
2023/05/03 01:33:50;;;;;;;9.95;2.05;;;;;;;9.94;93.04;102057.69;5032160;28;20389;-69
2023/05/03 01:36:27;;;;;;;7.57;1.45;;;;;;;9.95;93.60;102064.75;5032177;28;20188;-69
2023/05/03 01:38:53;;;;;;;8.07;1.42;;;;;;;9.98;92.87;102067.94;5032457;28;20049;-69
2023/05/03 01:41:22;;;;;;;5.25;1.20;;;;;;;9.87;92.46;102046.75;5031924;28;20385;-68
2023/05/03 01:43:48;;;;;;;8.52;1.55;;;;;;;9.84;92.77;102047.91;5031462;28;20115;-69
2023/05/03 01:46:14;;;;;;;9.73;1.70;;;;;;;10.00;93.15;102067.75;5032282;28;20025;-69
2023/05/03 01:48:40;;;;;;;6.63;1.50;;;;;;;10.03;92.42;102070.13;5031400;28;20037;-69
2023/05/03 01:51:05;;;;;;;9.93;1.77;;;;;;;10.03;93.06;102067.44;5032559;28;20029;-70
2023/05/03 01:53:30;;;;;;;9.07;1.75;;;;;;;10.06;92.92;102077.88;5032969;28;20039;-70
2023/05/03 01:55:56;;;;;;;5.38;1.02;;;;;;;10.05;92.45;102074.34;5031485;28;20033;-69
2023/05/03 01:58:21;;;;;;;4.75;1.50;;;;;;;10.06;92.95;102062.56;5035378;28;20078;-69
2023/05/03 02:00:47;;;;;;;7.30;1.30;;;;;;;10.09;93.38;102082.91;5036317;28;20033;-69
2023/05/03 02:03:13;;;;;;;4.82;1.17;;;;;;;10.17;93.51;102080.25;5034543;28;20064;-69
2023/05/03 02:05:38;;;;;;;7.65;1.40;;;;;;;10.05;93.43;102065.44;5037100;28;20399;-69
2023/05/03 02:08:04;;;;;;;4.40;1.02;;;;;;;10.18;93.04;102092.69;5036742;28;20032;-69
2023/05/03 02:10:29;;;;;;;6.18;1.05;;;;;;;10.21;93.44;102088.84;5035170;28;20033;-69
2023/05/03 02:12:55;;;;;;;5.28;1.20;;;;;;;10.27;93.76;102091.75;5017796;28;20029;-69
2023/05/03 02:15:20;;;;;;;6.28;1.27;;;;;;;10.22;93.76;102090.50;5035118;28;20033;-69
2023/05/03 02:17:48;;;;;;;7.00;1.27;;;;;;;10.16;93.50;102092.00;5034734;28;20037;-69
2023/05/03 02:20:13;;;;;;;5.88;1.33;;;;;;;10.15;93.64;102093.03;5034833;28;20501;-69
2023/05/03 02:22:39;;;;;;;8.38;1.40;;;;;;;10.16;94.15;102102.75;5035570;28;20025;-69
2023/05/03 02:25:05;;;;;;;3.70;1.08;;;;;;;10.17;93.91;102095.56;5003159;28;20036;-69
2023/05/03 02:27:33;;;;;;;5.07;1.10;;;;;;;10.21;93.72;102104.97;5034124;28;20033;-69
2023/05/03 02:29:59;;;;;;;6.82;1.15;;;;;;;10.21;93.90;102103.13;5018462;28;20079;-69
2023/05/03 02:32:24;;;;;;;6.57;1.25;;;;;;;10.23;93.91;102109.19;5036223;28;20486;-69
2023/05/03 02:34:50;;;;;;;4.72;0.95;;;;;;;10.22;94.29;102106.66;5035814;28;20059;-69
2023/05/03 02:37:15;;;;;;;4.82;1.08;;;;;;;10.23;93.99;102105.63;5017786;28;20501;-69
2023/05/03 02:39:41;;;;;;;4.65;0.98;;;;;;;10.30;93.66;102110.25;5035787;28;20029;-69
2023/05/03 02:42:07;;;;;;;10.68;1.92;;;;;;;10.37;93.50;102114.97;5017412;28;20035;-69
2023/05/03 02:44:33;;;;;;;2.35;0.90;;;;;;;10.41;92.63;102110.94;5034442;28;20029;-68
2023/05/03 02:46:58;;;;;;;3.90;0.88;;;;;;;10.37;92.87;102113.13;5034334;28;20056;-68
2023/05/03 02:49:25;;;;;;;4.10;0.88;;;;;;;10.35;92.94;102110.56;5034597;28;20404;-69
2023/05/03 02:51:51;;;;;;;6.68;0.90;;;;;;;10.29;92.35;102121.16;5034211;28;20099;-69
2023/05/03 02:54:17;;;;;;;3.75;1.00;;;;;;;10.24;92.99;102118.94;5034516;28;20105;-70
2023/05/03 02:56:42;;;;;;;4.72;0.80;;;;;;;10.27;92.94;102125.88;5034891;28;20117;-69
2023/05/03 02:59:08;;;;;;;4.13;1.15;;;;;;;10.20;92.49;102122.09;5035047;28;20440;-69
2023/05/03 03:01:33;;;;;;;5.05;1.00;;;;;;;10.21;92.96;102126.50;5025422;28;20017;-69
2023/05/03 03:03:59;;;;;;;6.55;1.02;;;;;;;10.16;92.99;102116.22;5049121;28;20034;-69
2023/05/03 03:06:24;;;;;;;5.03;0.93;;;;;;;10.22;93.28;102126.31;5040514;28;20171;-69
2023/05/03 03:08:50;;;;;;;3.47;1.00;;;;;;;10.27;92.94;102125.88;5017318;28;20029;-69
2023/05/03 03:11:16;;;;;;;4.53;0.80;;;;;;;10.27;93.11;102131.25;5034763;28;20716;-69
2023/05/03 03:13:41;;;;;;;6.75;1.13;;;;;;;10.31;92.19;102132.59;5033720;28;20481;-69
2023/05/03 03:16:07;;;;;;;3.80;1.10;;;;;;;10.33;91.94;102139.50;5017081;28;20030;-69
2023/05/03 03:18:33;;;;;;;3.20;1.00;;;;;;;10.30;92.04;102131.78;5033540;28;20037;-69
2023/05/03 03:21:00;;;;;;;5.00;0.75;;;;;;;10.39;91.77;102137.16;5033260;28;20535;-69
2023/05/03 03:23:26;;;;;;;5.80;1.15;;;;;;;10.42;90.95;102142.22;5035421;28;20064;-68
2023/05/03 03:25:51;;;;;;;4.10;1.10;;;;;;;10.42;91.07;102150.28;5033831;28;20062;-69
2023/05/03 03:28:17;;;;;;;3.08;0.88;;;;;;;10.37;91.21;102148.09;5032349;28;20010;-69
2023/05/03 03:30:43;;;;;;;3.58;0.93;;;;;;;10.40;91.41;102145.06;5033128;28;20064;-69
2023/05/03 03:33:10;;;;;;;11.63;1.33;;;;;;;10.49;90.72;102148.59;5033593;28;20033;-69
2023/05/03 03:35:36;;;;;;;5.65;1.10;;;;;;;10.58;90.28;102148.47;5034469;28;20092;-69
2023/05/03 03:38:02;;;;;;;2.95;0.90;;;;;;;10.51;90.54;102149.28;5033630;28;20128;-69
2023/05/03 03:40:28;;;;;;;8.77;1.33;;;;;;;10.35;90.60;102125.88;5034243;28;20051;-69
2023/05/03 03:42:53;;;;;;;4.30;0.95;;;;;;;10.48;90.49;102157.69;5016626;28;20036;-69
2023/05/03 03:45:18;;;;;;;3.75;1.05;;;;;;;10.45;90.26;102158.03;5034000;28;20060;-68
2023/05/03 03:47:44;;;;;;;3.42;0.95;;;;;;;10.31;90.16;102133.44;5033999;28;20029;-69
2023/05/03 03:50:10;;;;;;;7.63;1.17;;;;;;;10.50;90.42;102150.31;5032651;28;20124;-69
2023/05/03 03:52:35;;;;;;;10.15;1.40;;;;;;;10.90;88.29;102162.13;5016870;28;20044;-68
2023/05/03 03:55:01;;;;;;;2.78;1.00;;;;;;;11.87;85.15;102154.91;5041071;28;20124;-68
2023/05/03 03:57:29;;;;;;;3.70;1.08;;;;;;;12.70;82.09;102156.97;5036340;28;20041;-68
2023/05/03 03:59:55;;;;;;;5.50;1.17;;;;;;;13.40;78.68;102163.97;5034272;28;20017;-68
2023/05/03 04:02:21;;;;;;;5.20;0.95;;;;;;;13.80;76.19;102161.84;5016405;28;20532;-69
2023/05/03 04:04:46;;;;;;;6.28;1.10;;;;;;;14.14;74.59;102163.13;5032484;28;20051;-68
2023/05/03 04:07:12;;;;;;;4.00;1.05;;;;;;;14.23;72.80;102156.56;5032941;28;20106;-69
2023/05/03 04:09:37;;;;;;;7.20;1.13;;;;;;;14.65;70.88;102173.94;5033250;28;20056;-69
2023/05/03 04:12:04;;;;;;;6.53;1.10;;;;;;;15.15;68.82;102163.97;5033070;28;20385;-67
2023/05/03 04:14:29;;;;;;;5.88;0.90;;;;;;;15.51;67.01;102174.69;5032823;28;20496;-68
2023/05/03 04:16:55;;;;;;;6.63;1.10;;;;;;;15.74;65.78;102169.84;5034295;28;20087;-67
2023/05/03 04:19:21;;;;;;;8.60;1.63;;;;;;;15.63;65.02;102166.81;5015608;28;20118;-66
2023/05/03 04:21:47;;;;;;;4.72;1.17;;;;;;;15.74;64.19;102171.72;5033217;28;20033;-67
2023/05/03 04:24:16;;;;;;;4.10;1.10;;;;;;;16.06;63.38;102163.94;5031862;28;20021;-68
2023/05/03 04:26:42;;;;;;;4.60;1.27;;;;;;;16.33;61.60;102167.63;5032310;28;20052;-66
2023/05/03 04:29:08;;;;;;;5.47;0.95;;;;;;;16.57;60.53;102172.47;5031848;28;20032;-67
2023/05/03 04:31:33;;;;;;;5.68;1.23;;;;;;;16.71;59.92;102162.47;5032200;28;20436;-67
2023/05/03 04:33:59;;;;;;;4.22;1.27;;;;;;;16.83;59.01;102179.88;5032469;28;20053;-69
2023/05/03 04:36:25;;;;;;;4.80;1.15;;;;;;;16.80;58.80;102169.44;5032826;28;20056;-69
2023/05/03 04:38:51;;;;;;;3.35;1.20;;;;;;;16.93;58.25;102184.09;5030113;28;20061;-68
2023/05/03 04:41:16;;;;;;;8.20;1.45;;;;;;;16.92;57.97;102183.25;5031472;28;20025;-68
2023/05/03 04:43:42;;;;;;;4.47;1.30;;;;;;;16.98;57.81;102185.13;5032134;28;20489;-68
2023/05/03 04:46:08;;;;;;;7.03;1.60;;;;;;;17.22;56.98;102189.13;5033460;28;20055;-69
2023/05/03 04:48:35;;;;;;;6.53;1.40;;;;;;;17.19;56.82;102189.53;5033718;28;20492;-67
2023/05/03 04:51:00;;;;;;;7.00;1.40;;;;;;;17.23;56.58;102179.91;5034934;28;20025;-68
2023/05/03 04:53:26;;;;;;;4.80;1.20;;;;;;;17.38;56.42;102194.13;5052127;28;20034;-70
2023/05/03 04:55:52;;;;;;;3.70;1.42;;;;;;;17.35;56.19;102205.44;5040976;28;20033;-68
2023/05/03 04:58:17;;;;;;;10.00;1.70;;;;;;;17.48;55.91;102209.19;5032647;28;20036;-69
2023/05/03 05:00:44;;;;;;;5.78;1.27;;;;;;;17.48;55.94;102210.03;5033167;28;20109;-69
2023/05/03 05:03:10;;;;;;;6.97;1.38;;;;;;;17.50;55.69;102217.97;5033314;28;20033;-69
2023/05/03 05:05:35;;;;;;;5.80;1.30;;;;;;;17.35;55.67;102210.00;5032341;28;20029;-69
2023/05/03 05:08:01;;;;;;;5.90;1.73;;;;;;;16.69;56.11;102194.47;5031818;28;20137;-69
2023/05/03 05:10:26;;;;;;;6.68;1.25;;;;;;;16.49;56.86;102212.56;5031947;28;20041;-69
2023/05/03 05:12:52;;;;;;;6.53;1.40;;;;;;;16.09;57.94;102198.84;5031259;28;20047;-69
2023/05/03 05:15:18;;;;;;;5.75;1.52;;;;;;;16.12;57.69;102223.72;5030869;28;20036;-70
2023/05/03 05:17:43;;;;;;;7.10;1.58;;;;;;;15.94;58.31;102229.69;5030821;28;20236;-69
2023/05/03 05:20:11;;;;;;;6.88;1.58;;;;;;;15.82;58.03;102214.97;5030540;28;20392;-70
2023/05/03 05:22:39;;;;;;;7.35;1.58;;;;;;;15.13;60.11;102220.25;5029672;28;20026;-68
2023/05/03 05:25:06;;;;;;;5.85;1.20;;;;;;;13.54;66.66;102244.31;5031855;28;20475;-70
2023/05/03 05:27:33;;;;;;;3.67;1.27;;;;;;;12.80;71.17;102221.56;5031124;28;20117;-69
2023/05/03 05:29:58;;;;;;;3.70;1.10;;;;;;;12.66;73.49;102248.31;5032241;28;20509;-69
2023/05/03 05:32:24;;;;;;;8.18;1.45;;;;;;;12.42;75.10;102248.44;5015020;28;20037;-69
2023/05/03 05:34:54;;;;;;;4.75;1.30;;;;;;;12.31;75.84;102251.50;5040035;28;20041;-69
2023/05/03 05:37:23;;;;;;;5.90;1.35;;;;;;;12.30;76.44;102255.22;5037019;28;20125;-69
2023/05/03 05:39:49;;;;;;;4.68;1.17;;;;;;;12.14;77.16;102256.97;5041882;28;20116;-69
2023/05/03 05:42:16;;;;;;;3.72;1.20;;;;;;;12.08;76.98;102249.56;5041190;28;20028;-69
2023/05/03 05:44:41;;;;;;;4.18;1.30;;;;;;;12.08;77.18;102256.81;5040954;28;20056;-68
2023/05/03 05:47:08;;;;;;;4.05;1.33;;;;;;;12.19;77.05;102256.47;5045285;28;20480;-69
2023/05/03 05:49:34;;;;;;;4.32;1.33;;;;;;;12.13;77.11;102243.66;5039093;28;20533;-69
2023/05/03 05:52:00;;;;;;;4.03;1.20;;;;;;;12.37;77.45;102269.72;5018803;28;20128;-68
2023/05/03 05:54:26;;;;;;;4.47;1.35;;;;;;;12.60;76.88;102275.19;5036312;28;20388;-69
2023/05/03 05:56:51;;;;;;;5.65;1.35;;;;;;;12.60;77.39;102267.91;5036141;28;20029;-70
2023/05/03 05:59:17;;;;;;;5.32;1.33;;;;;;;12.71;76.67;102274.75;5035393;28;20030;-69
2023/05/03 06:01:44;;;;;;;4.07;1.10;;;;;;;12.74;76.59;102276.28;5033610;28;20029;-68
2023/05/03 06:04:14;;;;;;;5.40;1.05;;;;;;;12.74;76.00;102287.09;5033896;28;20373;-68
2023/05/03 06:06:40;;;;;;;3.25;1.25;;;;;;;12.69;75.35;102285.75;5035109;28;20053;-69
2023/05/03 06:09:07;;;;;;;7.53;1.27;;;;;;;12.73;74.56;102282.72;5034810;28;20037;-68
2023/05/03 06:11:33;;;;;;;2.60;0.95;;;;;;;12.74;74.12;102292.47;5034615;28;20021;-69
2023/05/03 06:13:59;;;;;;;2.50;0.80;;;;;;;12.70;73.59;102292.84;5035706;28;20083;-68
2023/05/03 06:16:25;;;;;;;3.15;1.00;;;;;;;12.79;73.56;102298.22;5035196;28;20026;-66
2023/05/03 06:18:50;;;;;;;4.78;1.30;;;;;;;12.80;73.24;102291.78;5033753;28;20108;-68
2023/05/03 06:21:16;;;;;;;5.05;1.15;;;;;;;12.82;73.35;102271.69;5035122;28;20116;-66
2023/05/03 06:23:42;;;;;;;3.55;0.90;;;;;;;13.02;72.86;102304.50;5036015;28;20033;-66
2023/05/03 06:26:07;;;;;;;5.03;1.13;;;;;;;13.01;72.49;102304.66;5049676;28;20125;-67
2023/05/03 06:28:34;;;;;;;3.47;0.85;;;;;;;13.04;71.91;102291.63;5034060;28;20112;-67
2023/05/03 06:31:00;;;;;;;2.25;0.80;;;;;;;13.19;70.80;102307.91;5034211;28;20029;-69
2023/05/03 06:33:25;;;;;;;1.90;0.90;;;;;;;13.11;69.87;102310.66;5033763;28;20511;-67
2023/05/03 06:35:51;;;;;;;2.40;0.80;;;;;;;13.15;69.12;102306.59;5047124;28;20029;-69
2023/05/03 06:38:17;;;;;;;3.95;0.90;;;;;;;13.15;68.21;102317.41;5032778;28;20049;-68
2023/05/03 06:40:46;;;;;;;3.22;0.80;;;;;;;13.04;68.10;102317.81;5034322;28;20025;-68
2023/05/03 06:43:12;;;;;;;2.10;0.70;;;;;;;12.92;67.20;102304.72;5033833;28;20022;-67
2023/05/03 06:45:38;;;;;;;2.25;0.85;;;;;;;12.82;67.06;102314.91;5033235;28;20029;-68
2023/05/03 06:48:05;;;;;;;1.10;0.50;;;;;;;12.61;66.84;102318.19;5033487;28;20110;-68
2023/05/03 06:50:30;;;;;;;2.65;0.60;;;;;;;12.60;66.74;102319.22;5032680;28;20590;-69
2023/05/03 06:52:56;;;;;;;5.60;1.10;;;;;;;12.63;66.17;102318.03;5034838;28;20064;-69
2023/05/03 06:55:21;;;;;;;2.40;0.80;;;;;;;12.70;65.73;102319.84;5033137;28;20025;-69
2023/05/03 06:57:47;;;;;;;2.17;0.70;;;;;;;12.68;66.14;102321.91;5033486;28;20034;-69
2023/05/03 07:00:14;;;;;;;2.63;0.70;;;;;;;12.60;65.95;102324.63;5032714;28;20025;-70
2023/05/03 07:02:40;;;;;;;1.20;0.70;;;;;;;12.63;65.52;102318.03;5033109;28;20451;-67
2023/05/03 07:05:06;;;;;;;1.98;0.57;;;;;;;12.62;65.52;102328.00;5032558;28;20034;-68
2023/05/03 07:07:32;;;;;;;2.40;0.70;;;;;;;12.60;65.02;102324.63;5032848;28;20045;-68
2023/05/03 07:09:57;;;;;;;1.70;0.65;;;;;;;12.75;64.88;102334.66;5033437;28;20655;-67
2023/05/03 07:12:27;;;;;;;2.22;0.70;;;;;;;12.58;64.77;102329.38;5033663;28;20120;-68
2023/05/03 07:14:54;;;;;;;3.00;0.68;;;;;;;12.49;63.89;102333.13;5034387;28;20048;-68
2023/05/03 07:17:20;;;;;;;1.05;0.50;;;;;;;12.46;62.87;102311.84;5033818;28;20045;-67
2023/05/03 07:19:47;;;;;;;1.95;0.50;;;;;;;12.73;61.99;102328.63;5034700;28;20041;-68
2023/05/03 07:22:13;;;;;;;2.42;0.70;;;;;;;12.70;61.22;102317.13;5032558;28;20558;-69
2023/05/03 07:24:39;;;;;;;2.05;0.50;;;;;;;12.83;61.07;102327.38;5034995;28;20032;-68
2023/05/03 07:27:04;;;;;;;2.53;0.73;;;;;;;12.82;60.59;102335.69;5034621;28;20018;-67
2023/05/03 07:29:29;;;;;;;1.55;0.60;;;;;;;12.83;60.41;102345.44;5032857;28;20099;-70
2023/05/03 07:31:55;;;;;;;2.42;0.63;;;;;;;12.83;59.71;102318.44;5033639;28;20014;-69
2023/05/03 07:34:20;;;;;;;2.88;1.20;;;;;;;12.84;58.71;102336.31;5033919;28;20022;-69
2023/05/03 07:36:46;;;;;;;1.65;0.50;;;;;;;12.80;57.52;102340.41;5032326;28;20041;-66
2023/05/03 07:39:11;;;;;;;2.03;0.52;;;;;;;12.90;56.95;102341.03;5032545;28;20083;-68
2023/05/03 07:41:37;;;;;;;1.52;0.60;;;;;;;12.70;57.29;102340.63;5015821;28;20048;-68
2023/05/03 07:44:02;;;;;;;2.85;0.57;;;;;;;12.88;57.35;102343.03;5032512;28;20067;-70
2023/05/03 07:46:33;;;;;;;1.10;0.52;;;;;;;13.01;58.17;102342.47;5033561;28;20041;-68
2023/05/03 07:49:00;;;;;;;2.30;0.50;;;;;;;13.02;57.91;102328.81;5033343;28;20068;-69
2023/05/03 07:51:25;;;;;;;1.58;0.40;;;;;;;12.96;58.58;102342.19;5033242;28;20108;-68
2023/05/03 07:53:51;;;;;;;2.63;0.60;;;;;;;12.96;58.44;102351.13;5015363;28;20217;-69
2023/05/03 07:56:16;;;;;;;2.08;0.60;;;;;;;12.82;60.22;102346.47;5014891;28;20029;-68
2023/05/03 07:58:41;;;;;;;2.22;0.77;;;;;;;12.97;61.06;102354.66;5032785;28;20025;-69
2023/05/03 08:01:07;;;;;;;1.35;0.43;;;;;;;12.91;61.78;102361.59;5032235;28;20488;-69
2023/05/03 08:03:32;;;;;;;2.08;0.52;;;;;;;12.86;62.18;102358.63;5033423;28;20056;-68
2023/05/03 08:05:58;;;;;;;3.35;0.68;;;;;;;12.70;62.23;102337.91;5032601;28;20025;-68
2023/05/03 08:08:24;;;;;;;4.32;0.90;;;;;;;12.63;63.02;102362.06;5032518;28;20503;-68
2023/05/03 08:10:51;;;;;;;4.15;0.75;;;;;;;12.65;64.28;102362.75;5032316;28;20061;-68
2023/05/03 08:13:17;;;;;;;2.75;0.60;;;;;;;12.77;61.88;102368.59;5033317;28;20037;-69
2023/05/03 08:15:44;;;;;;;2.05;0.82;;;;;;;12.73;62.59;102369.13;5033163;28;20028;-68
2023/05/03 08:18:10;;;;;;;2.47;0.60;;;;;;;12.61;63.12;102374.91;5032381;28;20138;-69
2023/05/03 08:20:35;;;;;;;2.45;0.70;;;;;;;12.68;63.54;102370.50;5031967;28;20072;-68
2023/05/03 08:23:01;;;;;;;2.42;0.63;;;;;;;12.74;64.56;102374.34;5031838;28;20026;-69
2023/05/03 08:25:27;;;;;;;1.70;0.70;;;;;;;12.79;63.83;102376.53;5033771;28;20503;-68
2023/05/03 08:27:54;;;;;;;2.92;0.90;;;;;;;12.74;65.22;102373.50;5031900;28;20033;-69
2023/05/03 08:30:20;;;;;;;1.35;0.63;;;;;;;12.75;65.12;102375.19;5032574;28;20025;-68
2023/05/03 08:32:46;;;;;;;4.82;0.80;;;;;;;12.69;66.26;102376.75;5033248;28;20033;-68
2023/05/03 08:35:14;;;;;;;2.35;0.70;;;;;;;12.89;65.48;102380.72;5041785;28;20051;-67
2023/05/03 08:37:40;;;;;;;2.20;0.70;;;;;;;12.68;65.72;102378.63;5023798;28;20140;-68
2023/05/03 08:40:09;;;;;;;3.75;0.80;;;;;;;12.90;65.08;102382.38;5033040;28;20026;-69
2023/05/03 08:42:37;;;;;;;2.20;0.60;;;;;;;12.94;63.62;102390.97;5031657;28;20021;-69
2023/05/03 08:45:05;;;;;;;2.83;0.60;;;;;;;12.75;63.25;102386.00;5032941;28;20400;-69
2023/05/03 08:47:34;;;;;;;2.70;0.70;;;;;;;12.73;64.53;102385.34;5031421;28;20029;-68
2023/05/03 08:50:03;;;;;;;2.75;0.47;;;;;;;12.61;64.70;102391.09;5032885;28;20033;-68
2023/05/03 08:52:30;;;;;;;3.10;0.60;;;;;;;12.61;65.13;102393.81;5032619;28;20032;-68
2023/05/03 08:54:55;;;;;;;2.08;0.60;;;;;;;12.63;65.27;102396.34;5033172;28;20443;-67
2023/05/03 08:57:23;;;;;;;2.70;0.88;;;;;;;12.63;67.67;102408.00;5030295;28;20029;-68
2023/05/03 08:59:52;;;;;;;1.70;0.65;;;;;;;12.77;65.77;102403.72;5032910;28;20045;-69
2023/05/03 09:02:18;;;;;;;1.13;0.50;;;;;;;12.66;64.44;102406.81;5031338;28;20032;-67
2023/05/03 09:04:43;;;;;;;2.80;0.70;;;;;;;12.81;64.07;102401.50;5033523;28;20030;-68
2023/05/03 09:07:10;;;;;;;5.95;0.88;;;;;;;13.02;65.02;102409.88;5032880;28;20578;-69
2023/05/03 09:09:35;;;;;;;3.05;0.70;;;;;;;12.89;66.20;102404.19;5034746;28;20029;-68
2023/05/03 09:12:04;;;;;;;1.85;0.73;;;;;;;12.89;64.94;102410.44;5035229;28;20424;-69
2023/05/03 09:14:30;;;;;;;3.20;0.75;;;;;;;12.80;66.00;102413.34;5035966;28;20373;-68
2023/05/03 09:17:19;;;;;;;1.65;0.50;;;;;;;12.90;65.90;102401.28;5035979;28;20037;-69
2023/05/03 09:19:53;;;;;;;1.58;0.65;;;;;;;12.50;67.18;102414.94;5036507;28;20148;-68
2023/05/03 09:22:19;;;;;;;2.53;0.68;;;;;;;12.37;67.82;102410.06;5033740;28;20037;-69
2023/05/03 09:25:00;;;;;;;2.45;0.50;;;;;;;12.34;68.84;102421.22;5039675;28;20406;-69
2023/05/03 09:27:26;;;;;;;4.43;0.85;;;;;;;12.43;70.68;102420.19;5037039;28;20069;-69
2023/05/03 09:29:54;;;;;;;2.47;0.57;;;;;;;12.12;70.39;102410.13;5037895;28;20044;-67
2023/05/03 09:32:21;;;;;;;2.67;0.77;;;;;;;12.05;72.01;102413.66;5035224;28;20017;-69
2023/05/03 09:34:47;;;;;;;2.47;0.70;;;;;;;12.21;71.28;102422.56;5037658;28;20033;-69
2023/05/03 09:37:13;;;;;;;2.35;0.70;;;;;;;12.27;70.63;102426.47;5035800;28;20065;-69
2023/05/03 09:39:40;;;;;;;1.77;0.57;;;;;;;12.28;70.02;102424.59;5034750;28;20037;-68
2023/05/03 09:42:16;;;;;;;3.55;0.50;;;;;;;12.31;70.74;102426.94;5033304;28;20049;-69
2023/05/03 09:44:47;;;;;;;3.13;0.73;;;;;;;12.36;68.86;102433.53;5033248;28;20187;-69
2023/05/03 09:47:14;;;;;;;2.63;0.75;;;;;;;12.47;68.46;102413.44;5034931;28;20484;-68
2023/05/03 09:49:39;;;;;;;2.63;0.88;;;;;;;12.53;69.78;102410.03;5034689;28;20060;-68
2023/05/03 09:52:06;;;;;;;1.90;0.70;;;;;;;12.45;70.04;102442.47;5017275;28;20052;-68
2023/05/03 09:54:35;;;;;;;2.60;0.52;;;;;;;12.45;69.36;102443.31;5036564;28;20503;-67
2023/05/03 09:57:05;;;;;;;2.08;0.77;;;;;;;12.33;70.28;102438.44;5046029;28;20105;-67
2023/05/03 09:59:35;;;;;;;2.75;0.50;;;;;;;12.60;69.61;102442.59;5038501;28;20040;-69
2023/05/03 10:02:06;;;;;;;1.60;0.60;;;;;;;12.57;69.58;102448.34;5035880;28;20037;-69
2023/05/03 10:04:46;;;;;;;1.65;0.60;;;;;;;12.44;67.23;102432.66;5035203;28;20025;-69
2023/05/03 10:07:16;;;;;;;2.03;0.70;;;;;;;12.83;66.54;102437.31;5033785;28;20037;-68
2023/05/03 10:09:46;;;;;;;3.20;0.57;;;;;;;13.28;65.10;102431.25;5035375;28;20061;-69
2023/05/03 10:12:15;;;;;;;3.33;0.80;;;;;;;13.09;64.59;102437.88;5034445;28;20069;-69
2023/05/03 10:14:43;;;;;;;2.03;0.70;;;;;;;13.21;64.73;102449.16;5035652;28;20068;-68
2023/05/03 10:17:32;;;;;;;3.42;0.65;;;;;;;13.13;64.11;102441.91;5035778;28;20021;-68
2023/05/03 10:20:25;;;;;;;1.92;0.60;;;;;;;13.16;63.94;102444.25;5034730;28;20036;-69
2023/05/03 10:23:03;;;;;;;2.70;0.70;;;;;;;12.98;65.24;102449.06;5036089;28;20026;-69
2023/05/03 10:25:29;;;;;;;0.70;0.40;;;;;;;12.97;63.64;102455.47;5032967;28;20111;-69
2023/05/03 10:28:04;;;;;;;1.20;0.40;;;;;;;13.04;65.27;102455.63;5033947;28;20056;-68
2023/05/03 10:30:38;;;;;;;3.05;0.50;;;;;;;12.79;64.48;102444.91;5035535;28;20928;-68
2023/05/03 10:33:12;;;;;;;1.63;0.52;;;;;;;12.79;64.79;102450.31;5034071;28;20036;-69
2023/05/03 10:35:40;;;;;;;2.85;0.60;;;;;;;12.64;65.13;102444.78;5036356;28;20033;-69
2023/05/03 10:38:18;;;;;;;3.08;0.43;;;;;;;12.68;65.03;102448.84;5019129;28;20410;-70
2023/05/03 10:40:44;;;;;;;2.60;0.70;;;;;;;12.66;65.60;102450.84;5036821;28;20029;-69
2023/05/03 10:43:35;;;;;;;4.32;0.70;;;;;;;12.77;68.21;102454.19;5040036;28;20038;-69
2023/05/03 10:46:03;;;;;;;1.17;0.50;;;;;;;12.81;69.19;102453.66;5045794;28;20044;-68
2023/05/03 10:48:30;;;;;;;2.35;0.50;;;;;;;12.53;69.18;102455.09;5038234;28;20490;-69
2023/05/03 10:50:58;;;;;;;1.65;0.52;;;;;;;12.36;69.75;102451.59;5034968;28;20115;-70
2023/05/03 10:53:38;;;;;;;1.73;0.40;;;;;;;12.49;70.29;102456.47;5034851;28;20162;-69
2023/05/03 10:56:06;;;;;;;2.80;0.63;;;;;;;12.43;69.66;102458.00;5033237;28;20408;-68
2023/05/03 10:58:45;;;;;;;3.10;0.52;;;;;;;12.44;69.21;102435.38;5034456;28;20071;-67
2023/05/03 11:01:13;;;;;;;2.97;0.70;;;;;;;12.64;66.46;102460.97;5035498;28;20401;-67
2023/05/03 11:03:48;;;;;;;1.02;0.40;;;;;;;12.62;66.24;102459.47;5038162;28;20037;-66
2023/05/03 11:06:33;;;;;;;0.57;0.30;;;;;;;12.60;63.83;102443.44;5034360;28;20476;-67
2023/05/03 11:09:00;;;;;;;2.13;0.55;;;;;;;12.93;63.78;102468.50;5034371;28;20057;-68
2023/05/03 11:11:25;;;;;;;2.30;0.52;;;;;;;13.22;61.15;102461.63;5034395;28;20097;-68
2023/05/03 11:13:52;;;;;;;1.00;0.35;;;;;;;13.26;60.76;102460.28;5034884;28;20049;-66
2023/05/03 11:16:17;;;;;;;3.33;0.50;;;;;;;13.09;61.39;102456.78;5033089;28;20041;-68
2023/05/03 11:18:44;;;;;;;6.35;0.60;;;;;;;13.17;60.90;102461.31;5033579;28;20037;-69
2023/05/03 11:21:12;;;;;;;1.65;0.45;;;;;;;12.81;61.97;102467.19;5034834;28;20040;-67
2023/05/03 11:23:40;;;;;;;1.27;0.40;;;;;;;12.80;59.88;102464.66;5016742;28;20519;-67
2023/05/03 11:26:06;;;;;;;1.02;0.30;;;;;;;12.73;61.38;102452.88;5033176;28;20044;-67